Flight Track Log - Related Links

Times and Time Zones

All times are in EDT time to prevent confusion due to time zone crossing. See the N628GE flight status page for this flight to view local times or setup timezone preferences in your user account.

Time Position Orientation Groundspeed Altitude Reporting Facility
EDT Latitude Longitude Course Direction KTS MPH feet Rate Location/Type
Sat 11:20:49 AM 40.6456 -75.4617 240° Southwest 81 93 1,600  Level New York Center
Sat 11:21:50 AM 40.6239 -75.4794 212° Southwest 94 108 2,700 942 Climbing New York Center
Sat 11:22:50 AM 40.6006 -75.4914 201° Southwest 85 98 3,500 639 Climbing New York Center
Sat 11:23:52 AM 40.5775 -75.4981 192° South 86 99 4,000 244 Climbing New York Center
Sat 11:24:53 AM 40.5456 -75.5122 199° South 136 157 4,000  Level New York Center
Sat 11:25:53 AM 40.5067 -75.4958 162° South 146 168 4,000  Level New York Center
Sat 11:26:54 AM 40.5211 -75.4478 68° East 154 177 4,000  Level New York Center
Sat 11:27:55 AM 40.5494 -75.4142 42° Northeast 152 175 4,000  Level New York Center
Sat 11:28:56 AM 40.5800 -75.3753 44° Northeast 145 167 4,000  Level New York Center
Sat 11:29:54 AM 40.6108 -75.3336 46° Northeast 149 171 4,000  Level New York Center
Sat 11:30:55 AM 40.6433 -75.3003 38° Northeast 148 170 4,000 195 Level New York Center
Sat 11:31:57 AM 40.6719 -75.2664 42° Northeast 140 161 4,400 443 Climbing New York Center
Sat 11:32:57 AM 40.6939 -75.2350 47° Northeast 120 138 4,900 298 Climbing New York Center
Sat 11:33:58 AM 40.7244 -75.2014 40° Northeast 139 160 5,000 50 Climbing New York Center
Sat 11:34:58 AM 40.7592 -75.1600 42° Northeast 160 184 5,000  Level New York Center
Sat 11:35:59 AM 40.7897 -75.1261 40° Northeast 158 182 5,000  Level New York Center
Sat 11:38:18 AM 40.8500 -75.0167 54° Northeast 162 186 5,000  Level New York TRACON
Sat 11:39:18 AM 40.8667 -74.9667 66° East 159 183 5,000  Level New York TRACON
Sat 11:40:18 AM 40.8667 -74.9000 90° East 160 184 5,000 -150 Level New York TRACON
Sat 11:41:18 AM 40.8833 -74.8500 66° East 161 185 4,700 -381 Descending New York TRACON
Sat 11:42:24 AM 40.9000 -74.7833 72° East 157 181 4,200 -450 Descending New York TRACON
Sat 11:43:18 AM 40.9000 -74.7333 90° East 153 176 3,800 -421 Descending New York TRACON
Sat 11:44:18 AM 40.9167 -74.6833 66° East 151 174 3,400 -381 Descending New York TRACON
Sat 11:45:24 AM 40.9167 -74.6167 90° East 152 175 3,000 -190 Descending New York TRACON
Sat 11:46:24 AM 40.9333 -74.5667 66° East 145 167 3,000  Level New York TRACON
Sat 11:47:24 AM 40.9500 -74.5167 66° East 141 162 3,000  Level New York TRACON
Sat 11:48:24 AM 40.9500 -74.4667 90° East 146 168 3,000  Level New York TRACON
Sat 11:49:18 AM 40.9667 -74.4167 66° East 146 168 3,000 -53 Level New York TRACON
Sat 11:50:18 AM 40.9667 -74.3667 90° East 152 175 2,900 -333 Descending New York TRACON
Sat 11:51:24 AM 40.9833 -74.3000 72° East 159 183 2,300 -429 Descending New York TRACON
Sat 11:52:24 AM 41.0000 -74.2667 56° Northeast 151 174 2,000 -158 Descending New York TRACON
Sat 11:53:18 AM 41.0167 -74.2167 66° East 157 181 2,000  Level New York TRACON
Sat 11:54:24 AM 40.9833 -74.2000 159° South 128 147 2,000  Level New York TRACON
Sat 11:55:18 AM 40.9667 -74.2167 217° Southwest 111 128 2,000 -250 Level New York TRACON
Sat 11:56:24 AM 40.9333 -74.2333 201° Southwest 104 120 1,500 -429 Descending New York TRACON
Sat 11:57:24 AM 40.9167 -74.2500 217° Southwest 93 107 1,100 -400 Descending New York TRACON

Login

Don't have an account? Register now (free) for customized features, flight alerts, and more!